Time;durP1;ratioP1;P1;durP2;ratioP2;P2;SDS_P1;SDS_P2;PMS_P1;PMS_P2;Temp;Humidity;BMP_temperature;BMP_pressure;BME280_temperature;BME280_humidity;BME280_pressure;Samples;Min_cycle;Max_cycle;Signal;HPM_P1;HPM_P2
2023/08/25 00:00:05;;;;;;;5.70;5.30;;;;;;;;;;5056847;28;20440;-84
2023/08/25 00:02:31;;;;;;;7.53;5.10;;;;;;;;;;5053231;28;20456;-84
2023/08/25 00:04:57;;;;;;;5.97;5.60;;;;;;;;;;5058183;28;20444;-84
2023/08/25 00:07:23;;;;;;;5.87;5.40;;;;;;;;;;5050183;28;20473;-83
2023/08/25 00:09:49;;;;;;;5.00;4.70;;;;;;;;;;5053219;28;20482;-84
2023/08/25 00:12:15;;;;;;;5.03;4.70;;;;;;;;;;5053802;28;20449;-84
2023/08/25 00:14:41;;;;;;;6.43;5.60;;;;;;;;;;5055354;28;20481;-83
2023/08/25 00:17:08;;;;;;;4.97;4.20;;;;;;;;;;5055472;28;20775;-82
2023/08/25 00:19:34;;;;;;;11.10;4.87;;;;;;;;;;5054121;28;20452;-84
2023/08/25 00:22:00;;;;;;;6.23;4.07;;;;;;;;;;5055187;28;20427;-83
2023/08/25 00:24:26;;;;;;;4.63;4.33;;;;;;;;;;5057012;28;20944;-84
2023/08/25 00:26:52;;;;;;;5.33;4.80;;;;;;;;;;5054710;28;20575;-83
2023/08/25 00:29:20;;;;;;;4.63;4.43;;;;;;;;;;5058690;28;20436;-83
2023/08/25 00:31:46;;;;;;;4.87;4.40;;;;;;;;;;5052000;28;20443;-84
2023/08/25 00:34:12;;;;;;;5.30;4.80;;;;;;;;;;5059148;28;20478;-83
2023/08/25 00:36:38;;;;;;;3.83;3.50;;;;;;;;;;5055237;28;20428;-84
2023/08/25 00:39:04;;;;;;;4.50;4.20;;;;;;;;;;5053117;28;20426;-84
2023/08/25 00:41:30;;;;;;;4.50;4.20;;;;;;;;;;5053923;28;20409;-84
2023/08/25 00:43:56;;;;;;;4.87;4.47;;;;;;;;;;5054356;28;20436;-84
2023/08/25 00:46:22;;;;;;;5.40;3.60;;;;;;;;;;5058118;28;20781;-83
2023/08/25 00:48:49;;;;;;;4.00;3.93;;;;;;;;;;5056157;28;20437;-83
2023/08/25 00:51:15;;;;;;;3.40;3.30;;;;;;;;;;5052795;28;20496;-85
2023/08/25 00:53:42;;;;;;;4.20;3.80;;;;;;;;;;5055763;28;20436;-84
2023/08/25 00:56:09;;;;;;;4.67;3.67;;;;;;;;;;5052763;28;20509;-82
2023/08/25 00:58:35;;;;;;;3.27;3.07;;;;;;;;;;5056608;28;21058;-83
2023/08/25 01:01:03;;;;;;;4.03;3.83;;;;;;;;;;5056630;28;20449;-83
2023/08/25 01:03:29;;;;;;;3.80;3.50;;;;;;;;;;5061103;28;20545;-84
2023/08/25 01:05:55;;;;;;;4.97;4.50;;;;;;;;;;5056575;28;20441;-84
2023/08/25 01:08:22;;;;;;;5.30;3.83;;;;;;;;;;5051406;28;20949;-83
2023/08/25 01:11:08;;;;;;;4.87;4.50;;;;;;;;;;5051689;28;20974;-82
2023/08/25 01:13:42;;;;;;;4.53;4.33;;;;;;;;;;5055080;28;20472;-83
2023/08/25 01:16:09;;;;;;;5.20;4.70;;;;;;;;;;5056432;28;20495;-83
2023/08/25 01:18:36;;;;;;;4.23;4.13;;;;;;;;;;5058278;28;20535;-84
2023/08/25 01:21:04;;;;;;;4.60;4.30;;;;;;;;;;5053701;28;20441;-85
2023/08/25 01:23:39;;;;;;;5.17;4.73;;;;;;;;;;5054140;28;20437;-84
2023/08/25 01:26:05;;;;;;;4.73;4.33;;;;;;;;;;5055259;28;20833;-84
2023/08/25 01:28:31;;;;;;;4.60;4.40;;;;;;;;;;5055946;28;20445;-83
2023/08/25 01:30:59;;;;;;;5.83;4.80;;;;;;;;;;5051344;28;20452;-84
2023/08/25 01:33:27;;;;;;;4.93;4.50;;;;;;;;;;5088543;27;20451;-83
2023/08/25 01:35:52;;;;;;;4.83;4.37;;;;;;;;;;5052263;28;20526;-83
2023/08/25 01:38:24;;;;;;;4.10;3.90;;;;;;;;;;5055716;28;20431;-84
2023/08/25 01:40:59;;;;;;;4.30;4.10;;;;;;;;;;5057486;28;20449;-83
2023/08/25 01:43:29;;;;;;;12.77;6.20;;;;;;;;;;5059107;28;21181;-84
2023/08/25 01:45:56;;;;;;;4.13;3.90;;;;;;;;;;5058138;28;20466;-83
2023/08/25 01:48:23;;;;;;;4.70;4.50;;;;;;;;;;5056552;28;20433;-84
2023/08/25 01:50:49;;;;;;;4.17;3.97;;;;;;;;;;5055756;28;20440;-84
2023/08/25 01:53:15;;;;;;;4.63;4.40;;;;;;;;;;5057474;28;20851;-84
2023/08/25 01:55:41;;;;;;;4.47;4.27;;;;;;;;;;5054297;28;20463;-84
2023/08/25 01:58:07;;;;;;;4.33;4.13;;;;;;;;;;5053810;28;20433;-83
2023/08/25 02:00:33;;;;;;;5.10;4.77;;;;;;;;;;5052071;28;20556;-85
2023/08/25 02:02:59;;;;;;;4.63;4.27;;;;;;;;;;5052807;28;20548;-83
2023/08/25 02:05:25;;;;;;;4.87;4.33;;;;;;;;;;5065535;28;20543;-84
2023/08/25 02:07:51;;;;;;;5.00;4.70;;;;;;;;;;5055597;28;21019;-82
2023/08/25 02:10:17;;;;;;;3.97;3.87;;;;;;;;;;5051592;28;20544;-81
2023/08/25 02:12:43;;;;;;;4.47;4.30;;;;;;;;;;5057622;28;21003;-83
2023/08/25 02:15:09;;;;;;;4.47;4.07;;;;;;;;;;5057868;28;20527;-83
2023/08/25 02:17:35;;;;;;;5.37;4.90;;;;;;;;;;5052814;28;20441;-83
2023/08/25 02:20:04;;;;;;;4.43;4.30;;;;;;;;;;5057004;28;20489;-83
2023/08/25 02:22:30;;;;;;;7.27;5.00;;;;;;;;;;5050192;28;20515;-82
2023/08/25 02:24:56;;;;;;;6.33;4.57;;;;;;;;;;5055672;28;20537;-83
2023/08/25 02:27:22;;;;;;;5.17;4.40;;;;;;;;;;5054859;28;20441;-83
2023/08/25 02:29:48;;;;;;;4.97;4.60;;;;;;;;;;5060936;28;20524;-83
2023/08/25 02:32:14;;;;;;;5.67;5.27;;;;;;;;;;5055151;28;20453;-82
2023/08/25 02:34:40;;;;;;;5.47;4.80;;;;;;;;;;5069614;28;20460;-83
2023/08/25 02:37:06;;;;;;;8.77;5.03;;;;;;;;;;5077896;28;20433;-84
2023/08/25 02:39:32;;;;;;;5.00;4.70;;;;;;;;;;5080280;28;20697;-83
2023/08/25 02:41:58;;;;;;;5.23;5.00;;;;;;;;;;5070691;28;20448;-84
2023/08/25 02:44:24;;;;;;;7.17;5.47;;;;;;;;;;5073187;28;20433;-84
2023/08/25 02:46:50;;;;;;;5.53;5.03;;;;;;;;;;5068393;28;20494;-82
2023/08/25 02:49:16;;;;;;;5.33;4.83;;;;;;;;;;5067887;28;20784;-83
2023/08/25 02:51:42;;;;;;;5.23;4.80;;;;;;;;;;5064864;28;20449;-84
2023/08/25 02:54:08;;;;;;;9.00;5.77;;;;;;;;;;5073658;28;20477;-82
2023/08/25 02:56:34;;;;;;;4.70;4.50;;;;;;;;;;5066572;28;20441;-82
2023/08/25 02:59:00;;;;;;;5.07;4.77;;;;;;;;;;5074835;28;20951;-83
2023/08/25 03:01:26;;;;;;;5.27;4.97;;;;;;;;;;5061026;28;20527;-83
2023/08/25 03:03:52;;;;;;;6.10;5.60;;;;;;;;;;5061947;28;20471;-84
2023/08/25 03:06:18;;;;;;;4.80;4.60;;;;;;;;;;5065830;28;20808;-82
2023/08/25 03:08:45;;;;;;;5.23;4.80;;;;;;;;;;5054455;28;20503;-82
2023/08/25 03:11:11;;;;;;;5.13;5.03;;;;;;;;;;5054837;28;20441;-83
2023/08/25 03:13:37;;;;;;;5.17;4.67;;;;;;;;;;5084832;28;20471;-82
2023/08/25 03:16:03;;;;;;;5.33;4.80;;;;;;;;;;5057630;28;20456;-84
2023/08/25 03:18:29;;;;;;;5.20;4.80;;;;;;;;;;5052833;28;20444;-84
2023/08/25 03:20:56;;;;;;;6.13;5.10;;;;;;;;;;5051249;28;20981;-83
2023/08/25 03:23:22;;;;;;;6.27;5.87;;;;;;;;;;5052966;28;20502;-84
2023/08/25 03:25:48;;;;;;;5.47;5.07;;;;;;;;;;5051799;28;20534;-83
2023/08/25 03:28:14;;;;;;;5.40;5.10;;;;;;;;;;5056324;28;20460;-83
2023/08/25 03:30:40;;;;;;;5.60;5.10;;;;;;;;;;5058436;28;20508;-83
2023/08/25 03:33:06;;;;;;;5.40;5.00;;;;;;;;;;5056184;28;20445;-83
2023/08/25 03:35:35;;;;;;;5.50;5.10;;;;;;;;;;5066190;28;20475;-83
2023/08/25 03:38:01;;;;;;;5.73;5.23;;;;;;;;;;5060032;28;20439;-84
2023/08/25 03:40:27;;;;;;;5.63;5.23;;;;;;;;;;5048888;28;21035;-82
2023/08/25 03:42:54;;;;;;;7.30;6.60;;;;;;;;;;5052328;28;20950;-81
2023/08/25 03:45:20;;;;;;;6.43;5.97;;;;;;;;;;5058958;28;20441;-82
2023/08/25 03:47:46;;;;;;;5.80;5.50;;;;;;;;;;5072927;28;20472;-82
2023/08/25 03:50:12;;;;;;;6.10;5.63;;;;;;;;;;5060287;28;20448;-83
2023/08/25 03:52:38;;;;;;;6.17;5.50;;;;;;;;;;5054630;28;21246;-83
2023/08/25 03:55:05;;;;;;;6.67;5.70;;;;;;;;;;5072872;28;20463;-82
2023/08/25 03:57:31;;;;;;;7.17;5.83;;;;;;;;;;5070743;28;21006;-83
2023/08/25 03:59:57;;;;;;;5.47;5.07;;;;;;;;;;5076793;28;20429;-84
2023/08/25 04:02:23;;;;;;;6.10;5.70;;;;;;;;;;5070636;28;20437;-82
2023/08/25 04:04:49;;;;;;;6.20;5.73;;;;;;;;;;5085322;28;20499;-82
2023/08/25 04:07:15;;;;;;;6.67;6.20;;;;;;;;;;5063814;28;20435;-83
2023/08/25 04:09:41;;;;;;;5.70;5.37;;;;;;;;;;5082694;28;20440;-82
2023/08/25 04:12:07;;;;;;;5.90;5.50;;;;;;;;;;5072341;28;20944;-83
2023/08/25 04:14:34;;;;;;;5.53;5.13;;;;;;;;;;5071260;28;20475;-82
2023/08/25 04:17:00;;;;;;;6.63;6.17;;;;;;;;;;5065988;28;20401;-83
2023/08/25 04:19:26;;;;;;;6.17;5.63;;;;;;;;;;5073909;28;20436;-82
2023/08/25 04:21:52;;;;;;;7.73;6.67;;;;;;;;;;5063931;28;20471;-83
2023/08/25 04:24:18;;;;;;;18.90;10.00;;;;;;;;;;5073672;28;20431;-83
2023/08/25 04:26:44;;;;;;;6.50;6.00;;;;;;;;;;5066142;28;20405;-83
2023/08/25 04:29:10;;;;;;;5.70;5.43;;;;;;;;;;5070558;28;20434;-83
2023/08/25 04:31:36;;;;;;;6.50;6.00;;;;;;;;;;5050280;28;20784;-83
2023/08/25 04:34:05;;;;;;;5.37;5.13;;;;;;;;;;5046759;28;20911;-83
2023/08/25 04:36:31;;;;;;;6.37;5.80;;;;;;;;;;5066622;28;20440;-83
2023/08/25 04:38:57;;;;;;;6.20;5.90;;;;;;;;;;5047005;28;20455;-83
2023/08/25 04:41:23;;;;;;;5.73;5.47;;;;;;;;;;5063815;28;21123;-82
2023/08/25 04:43:49;;;;;;;5.50;5.10;;;;;;;;;;5061005;28;20460;-82
2023/08/25 04:46:15;;;;;;;6.73;6.33;;;;;;;;;;5100082;27;20432;-82
2023/08/25 04:48:45;;;;;;;6.60;6.27;;;;;;;;;;5074129;28;20486;-82
2023/08/25 04:51:11;;;;;;;6.83;6.30;;;;;;;;;;5066548;28;20496;-83
2023/08/25 04:53:37;;;;;;;7.00;6.60;;;;;;;;;;5067952;28;20452;-82
2023/08/25 04:56:04;;;;;;;6.83;6.20;;;;;;;;;;5066123;28;20424;-81
2023/08/25 04:58:30;;;;;;;9.10;8.53;;;;;;;;;;5069594;28;20464;-83
2023/08/25 05:00:56;;;;;;;6.57;6.17;;;;;;;;;;5065791;28;20437;-83
2023/08/25 05:03:22;;;;;;;5.73;5.40;;;;;;;;;;5055459;28;20903;-83
2023/08/25 05:05:48;;;;;;;6.33;5.40;;;;;;;;;;5074599;28;20421;-82
2023/08/25 05:08:14;;;;;;;5.43;5.17;;;;;;;;;;5059192;28;20429;-83
2023/08/25 05:10:40;;;;;;;5.77;5.47;;;;;;;;;;5070866;28;20900;-82
2023/08/25 05:13:06;;;;;;;5.00;4.70;;;;;;;;;;5076051;28;20455;-81
2023/08/25 05:15:33;;;;;;;8.17;6.23;;;;;;;;;;5072445;28;20460;-83
2023/08/25 05:17:59;;;;;;;7.17;6.43;;;;;;;;;;5068527;28;20436;-83
2023/08/25 05:20:25;;;;;;;7.57;6.70;;;;;;;;;;5066216;28;21137;-83
2023/08/25 05:22:51;;;;;;;6.20;5.80;;;;;;;;;;5055854;28;20437;-82
2023/08/25 05:25:20;;;;;;;5.90;5.50;;;;;;;;;;5066368;28;20432;-83
2023/08/25 05:27:46;;;;;;;6.53;6.13;;;;;;;;;;5068192;28;20424;-82
2023/08/25 05:30:15;;;;;;;6.97;6.50;;;;;;;;;;5067520;28;20475;-83
2023/08/25 05:32:41;;;;;;;5.83;5.23;;;;;;;;;;5066177;28;20433;-84
2023/08/25 05:35:08;;;;;;;6.97;6.47;;;;;;;;;;5073287;28;20478;-83
2023/08/25 05:37:34;;;;;;;6.37;5.90;;;;;;;;;;5066405;28;21172;-83
2023/08/25 05:40:00;;;;;;;6.80;6.33;;;;;;;;;;5073869;28;20520;-82
2023/08/25 05:42:31;;;;;;;7.20;6.50;;;;;;;;;;5072027;28;20456;-82
2023/08/25 05:44:57;;;;;;;6.37;6.10;;;;;;;;;;5063216;28;20459;-83
2023/08/25 05:47:23;;;;;;;6.70;5.83;;;;;;;;;;5064608;28;20955;-83
2023/08/25 05:49:50;;;;;;;6.37;5.90;;;;;;;;;;5068817;28;20437;-83
2023/08/25 05:52:16;;;;;;;7.20;6.17;;;;;;;;;;5065778;28;20424;-84
2023/08/25 05:54:42;;;;;;;6.73;5.80;;;;;;;;;;5072549;28;20497;-84
2023/08/25 05:57:08;;;;;;;7.70;6.57;;;;;;;;;;5066489;28;20421;-81
2023/08/25 05:59:34;;;;;;;9.03;5.73;;;;;;;;;;5071508;28;20421;-83
2023/08/25 06:02:00;;;;;;;5.20;4.87;;;;;;;;;;5066181;28;20520;-83
2023/08/25 06:04:26;;;;;;;5.20;4.90;;;;;;;;;;5082293;28;20459;-84
2023/08/25 06:06:52;;;;;;;4.60;4.40;;;;;;;;;;5060279;28;20425;-84
2023/08/25 06:09:18;;;;;;;4.83;4.63;;;;;;;;;;5081127;28;20450;-83
2023/08/25 06:11:44;;;;;;;5.57;4.93;;;;;;;;;;5064115;28;20435;-84
2023/08/25 06:14:11;;;;;;;5.17;4.77;;;;;;;;;;5077311;28;20755;-84
2023/08/25 06:16:41;;;;;;;4.10;4.00;;;;;;;;;;5063947;28;20425;-84
2023/08/25 06:19:07;;;;;;;4.23;4.03;;;;;;;;;;5073823;28;21009;-83
2023/08/25 06:21:33;;;;;;;4.10;3.90;;;;;;;;;;5064629;28;20427;-82
2023/08/25 06:23:59;;;;;;;4.47;4.23;;;;;;;;;;5071092;28;20454;-84
2023/08/25 06:26:25;;;;;;;4.70;4.50;;;;;;;;;;5063322;28;20484;-82
2023/08/25 06:28:52;;;;;;;4.70;4.40;;;;;;;;;;5060688;28;20459;-82
2023/08/25 06:31:18;;;;;;;4.43;4.20;;;;;;;;;;5064068;28;20441;-82
2023/08/25 06:33:45;;;;;;;4.50;4.20;;;;;;;;;;5070247;28;20423;-83
2023/08/25 06:36:11;;;;;;;3.50;3.43;;;;;;;;;;5063805;28;20397;-83
2023/08/25 06:38:37;;;;;;;4.40;4.20;;;;;;;;;;5067310;28;20435;-84
2023/08/25 06:41:03;;;;;;;3.77;3.67;;;;;;;;;;5063824;28;20900;-82
2023/08/25 06:43:29;;;;;;;4.50;4.17;;;;;;;;;;5072367;28;20433;-84
2023/08/25 06:45:56;;;;;;;3.87;3.53;;;;;;;;;;5063933;28;20417;-83
2023/08/25 06:48:22;;;;;;;3.60;3.47;;;;;;;;;;5072686;28;20421;-85
2023/08/25 06:50:48;;;;;;;3.93;3.70;;;;;;;;;;5065703;28;20409;-85
2023/08/25 06:53:14;;;;;;;4.33;4.03;;;;;;;;;;5072623;28;20425;-84
2023/08/25 06:55:40;;;;;;;5.17;4.77;;;;;;;;;;5065897;28;20525;-85
2023/08/25 06:58:07;;;;;;;4.43;4.20;;;;;;;;;;5077488;28;20429;-84
2023/08/25 07:00:34;;;;;;;5.40;5.03;;;;;;;;;;5074220;28;20441;-82
2023/08/25 07:03:01;;;;;;;4.93;4.70;;;;;;;;;;5071344;28;20466;-83
2023/08/25 07:05:27;;;;;;;4.87;4.47;;;;;;;;;;5064688;28;20432;-84
2023/08/25 07:07:53;;;;;;;5.63;5.10;;;;;;;;;;5085429;27;20434;-83
2023/08/25 07:10:19;;;;;;;5.77;5.23;;;;;;;;;;5053726;28;20440;-83
2023/08/25 07:12:46;;;;;;;5.50;5.20;;;;;;;;;;5060652;28;20574;-83
2023/08/25 07:15:12;;;;;;;5.40;5.30;;;;;;;;;;5056709;28;20465;-83
2023/08/25 07:17:39;;;;;;;6.53;5.63;;;;;;;;;;5056973;28;20456;-85
2023/08/25 07:20:06;;;;;;;6.40;6.00;;;;;;;;;;5061308;28;21133;-85
2023/08/25 07:22:32;;;;;;;6.10;5.77;;;;;;;;;;5067033;28;20472;-86
2023/08/25 07:24:58;;;;;;;7.30;6.70;;;;;;;;;;5060059;28;20456;-82
2023/08/25 07:27:24;;;;;;;6.20;5.77;;;;;;;;;;5060237;28;20751;-85
2023/08/25 07:29:54;;;;;;;7.20;6.50;;;;;;;;;;5054580;28;20519;-84
2023/08/25 07:32:20;;;;;;;7.10;6.53;;;;;;;;;;5064988;28;20444;-84
2023/08/25 07:34:46;;;;;;;8.77;8.07;;;;;;;;;;5068011;28;20466;-85
2023/08/25 07:37:13;;;;;;;7.97;7.43;;;;;;;;;;5055609;28;20512;-85
2023/08/25 07:39:42;;;;;;;7.93;7.53;;;;;;;;;;5076280;28;20432;-85
2023/08/25 07:42:08;;;;;;;7.70;7.20;;;;;;;;;;5075230;28;20440;-84
2023/08/25 07:44:35;;;;;;;10.50;9.23;;;;;;;;;;5087051;28;20429;-83
2023/08/25 07:47:01;;;;;;;8.93;8.43;;;;;;;;;;5063445;28;20712;-85
2023/08/25 07:49:26;;;;;;;11.13;10.23;;;;;;;;;;5068867;28;20999;-85
2023/08/25 07:51:52;;;;;;;10.77;9.70;;;;;;;;;;5076785;28;20954;-82
2023/08/25 07:54:18;;;;;;;15.00;13.07;;;;;;;;;;5084411;28;20460;-84
2023/08/25 07:56:44;;;;;;;11.43;10.70;;;;;;;;;;5073973;28;20437;-86
2023/08/25 07:59:10;;;;;;;12.57;11.50;;;;;;;;;;5069674;28;20428;-85
2023/08/25 08:01:36;;;;;;;12.07;10.87;;;;;;;;;;5075012;28;20459;-85
2023/08/25 08:04:03;;;;;;;11.10;10.20;;;;;;;;;;5084378;28;20438;-82
2023/08/25 08:06:29;;;;;;;11.77;10.57;;;;;;;;;;5086948;28;21056;-85
2023/08/25 08:08:56;;;;;;;10.40;9.70;;;;;;;;;;5088233;28;20428;-85
2023/08/25 08:11:21;;;;;;;11.47;10.57;;;;;;;;;;5073851;28;20479;-85
2023/08/25 08:13:47;;;;;;;11.13;10.40;;;;;;;;;;5064307;28;20507;-82
2023/08/25 08:16:13;;;;;;;12.70;10.90;;;;;;;;;;5062890;28;20444;-84
2023/08/25 08:18:39;;;;;;;11.47;10.67;;;;;;;;;;5064902;28;20543;-86
2023/08/25 08:21:06;;;;;;;11.47;10.87;;;;;;;;;;5057968;28;20947;-84
2023/08/25 08:23:32;;;;;;;12.43;11.50;;;;;;;;;;5073387;28;20464;-85
2023/08/25 08:25:59;;;;;;;13.30;12.50;;;;;;;;;;5064027;28;20785;-85
2023/08/25 08:28:25;;;;;;;11.27;10.40;;;;;;;;;;5069383;28;20516;-83
2023/08/25 08:30:51;;;;;;;13.50;11.87;;;;;;;;;;5073013;28;20526;-84
2023/08/25 08:33:17;;;;;;;10.40;9.70;;;;;;;;;;5072329;28;20433;-83
2023/08/25 08:35:44;;;;;;;9.70;9.20;;;;;;;;;;5066280;28;20471;-84
2023/08/25 08:38:10;;;;;;;9.20;8.60;;;;;;;;;;5066385;28;20505;-86
2023/08/25 08:40:36;;;;;;;8.83;8.33;;;;;;;;;;5063916;28;20490;-85
2023/08/25 08:43:03;;;;;;;7.20;6.90;;;;;;;;;;5071734;28;20429;-87
2023/08/25 08:45:33;;;;;;;9.00;8.13;;;;;;;;;;5071307;28;20439;-86
2023/08/25 08:48:02;;;;;;;7.80;7.30;;;;;;;;;;5069405;28;20499;-85
2023/08/25 08:50:28;;;;;;;9.23;8.53;;;;;;;;;;5060841;28;20463;-86
2023/08/25 08:52:56;;;;;;;8.60;8.07;;;;;;;;;;5061745;28;20800;-85
2023/08/25 08:55:22;;;;;;;8.27;7.87;;;;;;;;;;5083430;28;20819;-85
2023/08/25 08:57:49;;;;;;;8.70;8.17;;;;;;;;;;5060998;28;20440;-83
2023/08/25 09:00:18;;;;;;;10.00;9.20;;;;;;;;;;5077669;28;20447;-83
2023/08/25 09:02:45;;;;;;;9.57;8.97;;;;;;;;;;5072554;28;20432;-84
2023/08/25 09:05:12;;;;;;;7.70;7.30;;;;;;;;;;5070405;28;20570;-86
2023/08/25 09:07:39;;;;;;;7.10;6.70;;;;;;;;;;5087120;28;20465;-87
2023/08/25 09:10:08;;;;;;;6.90;6.50;;;;;;;;;;5074705;28;20438;-88
2023/08/25 09:12:34;;;;;;;7.20;6.60;;;;;;;;;;5076590;28;20445;-87
2023/08/25 09:15:00;;;;;;;7.73;7.40;;;;;;;;;;5072076;28;20819;-87
2023/08/25 09:17:26;;;;;;;8.53;8.03;;;;;;;;;;5073341;28;20586;-87
2023/08/25 09:19:53;;;;;;;9.07;8.40;;;;;;;;;;5054065;28;21265;-81
2023/08/25 09:22:19;;;;;;;8.13;7.63;;;;;;;;;;5054130;28;20505;-83
2023/08/25 09:24:45;;;;;;;8.73;8.13;;;;;;;;;;5054880;28;20441;-81
2023/08/25 09:27:22;;;;;;;7.90;7.30;;;;;;;;;;5059234;28;20439;-82
2023/08/25 09:29:48;;;;;;;8.80;8.20;;;;;;;;;;5063079;28;21294;-82
2023/08/25 09:32:14;;;;;;;12.20;9.67;;;;;;;;;;5051982;28;20526;-82
2023/08/25 09:34:41;;;;;;;10.47;9.83;;;;;;;;;;5052587;28;20477;-83
2023/08/25 09:37:07;;;;;;;12.77;11.53;;;;;;;;;;5057203;28;20443;-82
2023/08/25 09:39:42;;;;;;;12.57;11.67;;;;;;;;;;5063859;28;20435;-82
2023/08/25 09:42:08;;;;;;;13.07;11.87;;;;;;;;;;5058585;28;20425;-81
2023/08/25 09:44:34;;;;;;;13.70;12.43;;;;;;;;;;5056519;28;20436;-79
2023/08/25 09:47:01;;;;;;;11.30;10.43;;;;;;;;;;5054511;28;20578;-82
2023/08/25 09:49:37;;;;;;;11.43;10.70;;;;;;;;;;5056965;28;20430;-89
2023/08/25 09:52:03;;;;;;;12.90;11.87;;;;;;;;;;5072251;28;20858;-87
2023/08/25 09:54:29;;;;;;;12.17;11.27;;;;;;;;;;5081843;28;21070;-88
2023/08/25 09:56:56;;;;;;;11.37;10.67;;;;;;;;;;5084086;28;20947;-87
2023/08/25 09:59:22;;;;;;;12.00;11.10;;;;;;;;;;5078286;28;20471;-87
2023/08/25 10:01:48;;;;;;;11.97;11.00;;;;;;;;;;5084448;28;20594;-87
2023/08/25 10:04:16;;;;;;;12.03;11.13;;;;;;;;;;5075219;28;20467;-87
2023/08/25 10:06:42;;;;;;;20.47;13.80;;;;;;;;;;5076135;28;20464;-88
2023/08/25 10:09:08;;;;;;;21.33;14.43;;;;;;;;;;5085958;28;20440;-88
2023/08/25 10:11:40;;;;;;;22.33;20.03;;;;;;;;;;5085357;28;20419;-86
2023/08/25 10:14:07;;;;;;;13.57;12.40;;;;;;;;;;5090207;28;20459;-89
2023/08/25 10:16:39;;;;;;;8.93;8.30;;;;;;;;;;5076847;28;20427;-89
2023/08/25 10:19:05;;;;;;;6.53;6.13;;;;;;;;;;5077637;28;20658;-90
2023/08/25 10:21:32;;;;;;;6.40;6.00;;;;;;;;;;5063828;28;20429;-88
2023/08/25 10:24:01;;;;;;;11.33;7.80;;;;;;;;;;5092460;28;20429;-89
2023/08/25 10:26:27;;;;;;;9.10;8.27;;;;;;;;;;5062282;28;20434;-83
2023/08/25 10:28:54;;;;;;;7.43;5.10;;;;;;;;;;5079428;28;20438;-85
2023/08/25 10:31:20;;;;;;;8.10;5.70;;;;;;;;;;5066903;28;20446;-88
2023/08/25 10:33:46;;;;;;;6.67;6.17;;;;;;;;;;5057960;28;20442;-87
2023/08/25 10:36:16;;;;;;;5.40;4.93;;;;;;;;;;5063103;28;20492;-83
2023/08/25 10:38:43;;;;;;;7.13;5.07;;;;;;;;;;5067786;28;21066;-86
2023/08/25 10:41:17;;;;;;;5.27;5.03;;;;;;;;;;5074472;28;20817;-90
2023/08/25 10:43:46;;;;;;;5.70;5.20;;;;;;;;;;5074469;28;20646;-88
2023/08/25 10:46:12;;;;;;;6.07;5.77;;;;;;;;;;5065862;28;20444;-87
2023/08/25 10:48:38;;;;;;;7.20;6.20;;;;;;;;;;5062909;28;20505;-88
2023/08/25 10:51:17;;;;;;;7.17;6.60;;;;;;;;;;5067887;28;20969;-88
2023/08/25 10:53:44;;;;;;;6.00;5.50;;;;;;;;;;5061181;28;20429;-88
2023/08/25 10:56:30;;;;;;;6.10;5.70;;;;;;;;;;5058847;28;20448;-89
2023/08/25 10:59:03;;;;;;;3.90;3.70;;;;;;;;;;5066617;28;20427;-86
2023/08/25 11:01:38;;;;;;;3.93;3.70;;;;;;;;;;5056742;28;20745;-87
2023/08/25 11:04:06;;;;;;;3.50;3.40;;;;;;;;;;5058703;28;20492;-87
2023/08/25 11:06:39;;;;;;;4.23;3.93;;;;;;;;;;5089451;28;20448;-85
2023/08/25 11:09:05;;;;;;;5.80;5.27;;;;;;;;;;5078654;28;20413;-87
2023/08/25 11:11:34;;;;;;;6.20;5.80;;;;;;;;;;5082298;28;20436;-86
2023/08/25 11:14:00;;;;;;;6.33;5.70;;;;;;;;;;5070626;28;20528;-86
2023/08/25 11:16:27;;;;;;;5.30;4.80;;;;;;;;;;5079557;28;20593;-86
2023/08/25 11:18:53;;;;;;;5.80;5.23;;;;;;;;;;5075447;28;20835;-85
2023/08/25 11:21:23;;;;;;;6.03;5.50;;;;;;;;;;5075972;28;20877;-84
2023/08/25 11:23:49;;;;;;;4.97;4.77;;;;;;;;;;5070515;28;20413;-86
2023/08/25 11:26:18;;;;;;;5.30;5.20;;;;;;;;;;5073443;28;20757;-86
2023/08/25 11:28:48;;;;;;;5.30;5.10;;;;;;;;;;5067640;28;20527;-83
2023/08/25 11:31:14;;;;;;;7.13;6.63;;;;;;;;;;5077223;28;20416;-83
2023/08/25 11:33:40;;;;;;;5.50;5.00;;;;;;;;;;5080513;28;20424;-84
2023/08/25 11:36:07;;;;;;;6.73;6.23;;;;;;;;;;5076943;28;20464;-85
2023/08/25 11:38:33;;;;;;;4.80;4.50;;;;;;;;;;5078019;28;20505;-85
2023/08/25 11:40:59;;;;;;;6.60;5.57;;;;;;;;;;5082342;28;20421;-85
2023/08/25 11:43:36;;;;;;;6.13;5.53;;;;;;;;;;5083719;28;20528;-86
2023/08/25 11:46:04;;;;;;;5.97;5.57;;;;;;;;;;5071540;28;20423;-84
2023/08/25 11:48:30;;;;;;;9.73;5.80;;;;;;;;;;5075127;28;20463;-85
2023/08/25 11:50:57;;;;;;;7.90;5.73;;;;;;;;;;5072076;28;20425;-84
2023/08/25 11:53:23;;;;;;;5.70;5.30;;;;;;;;;;5071564;28;20444;-84
2023/08/25 11:56:05;;;;;;;5.90;5.30;;;;;;;;;;5083366;28;20878;-85
2023/08/25 11:58:35;;;;;;;4.43;4.00;;;;;;;;;;5078194;28;20436;-89
2023/08/25 12:01:11;;;;;;;5.50;5.10;;;;;;;;;;5090406;28;20889;-92
2023/08/25 12:03:38;;;;;;;3.93;3.80;;;;;;;;;;5059775;28;20425;-84
2023/08/25 12:06:05;;;;;;;4.53;4.13;;;;;;;;;;5108687;28;20451;-87
2023/08/25 12:08:31;;;;;;;4.63;4.20;;;;;;;;;;5089754;28;20437;-89
2023/08/25 12:10:57;;;;;;;4.77;4.47;;;;;;;;;;5108165;28;20446;-87
2023/08/25 12:13:24;;;;;;;5.27;4.87;;;;;;;;;;5113585;28;20526;-91
2023/08/25 12:15:53;;;;;;;5.33;4.93;;;;;;;;;;5091500;28;20472;-90
2023/08/25 12:18:19;;;;;;;6.57;6.27;;;;;;;;;;5105155;28;21025;-91
2023/08/25 12:20:45;;;;;;;4.97;4.57;;;;;;;;;;5085710;28;20477;-90
2023/08/25 12:23:11;;;;;;;5.50;5.20;;;;;;;;;;5103491;28;20472;-91
2023/08/25 12:25:37;;;;;;;4.80;4.40;;;;;;;;;;5081724;28;20516;-85
2023/08/25 12:28:03;;;;;;;6.20;4.63;;;;;;;;;;5074852;28;20439;-89
2023/08/25 12:30:30;;;;;;;4.20;4.00;;;;;;;;;;5090393;28;20475;-89
2023/08/25 12:32:56;;;;;;;3.83;3.57;;;;;;;;;;5285039;23;20470;-89
2023/08/25 12:35:23;;;;;;;4.97;3.80;;;;;;;;;;5045697;28;20525;-87
2023/08/25 12:37:49;;;;;;;3.40;3.30;;;;;;;;;;5058287;28;20440;-91
2023/08/25 12:40:20;;;;;;;2.70;2.60;;;;;;;;;;5046758;28;20433;-92
2023/08/25 12:42:46;;;;;;;3.70;3.60;;;;;;;;;;5029210;28;20435;-92
2023/08/25 12:45:12;;;;;;;3.10;3.00;;;;;;;;;;5040449;28;20433;-93
2023/08/25 12:47:38;;;;;;;3.53;3.20;;;;;;;;;;5045498;28;20507;-87
2023/08/25 12:50:04;;;;;;;3.17;3.07;;;;;;;;;;5040837;28;20586;-86
2023/08/25 12:52:33;;;;;;;3.50;3.40;;;;;;;;;;5034829;28;20442;-88
2023/08/25 12:54:59;;;;;;;4.70;4.40;;;;;;;;;;5046975;28;20473;-87
2023/08/25 12:57:25;;;;;;;3.90;3.80;;;;;;;;;;5040119;28;20430;-87
2023/08/25 12:59:51;;;;;;;3.60;3.40;;;;;;;;;;5049118;28;20444;-86
2023/08/25 13:02:17;;;;;;;4.60;4.23;;;;;;;;;;5038719;28;20785;-87
2023/08/25 13:04:42;;;;;;;4.63;4.23;;;;;;;;;;5037903;28;20444;-91
2023/08/25 13:07:09;;;;;;;4.40;4.20;;;;;;;;;;5042075;28;20460;-87
2023/08/25 13:09:35;;;;;;;4.80;4.50;;;;;;;;;;5039850;28;20452;-88
2023/08/25 13:12:01;;;;;;;4.87;4.47;;;;;;;;;;5034485;28;20422;-87
2023/08/25 13:14:27;;;;;;;2.90;2.90;;;;;;;;;;5030769;28;20492;-88
2023/08/25 13:16:53;;;;;;;6.50;3.57;;;;;;;;;;5028387;28;20439;-85
2023/08/25 13:19:19;;;;;;;2.90;2.70;;;;;;;;;;5028506;28;20434;-83
2023/08/25 13:21:45;;;;;;;2.90;2.80;;;;;;;;;;5029803;28;20752;-85
2023/08/25 13:24:11;;;;;;;2.40;2.30;;;;;;;;;;5043772;28;20541;-87
2023/08/25 13:26:37;;;;;;;2.70;2.50;;;;;;;;;;5035476;28;20500;-86
2023/08/25 13:29:04;;;;;;;2.43;2.33;;;;;;;;;;5032868;28;20449;-88
2023/08/25 13:31:30;;;;;;;3.47;3.37;;;;;;;;;;5029430;28;20520;-87
2023/08/25 13:33:57;;;;;;;4.03;3.93;;;;;;;;;;5037100;28;20488;-88
2023/08/25 13:36:23;;;;;;;2.37;2.30;;;;;;;;;;5032090;28;20442;-85
2023/08/25 13:38:49;;;;;;;3.00;2.90;;;;;;;;;;5028152;28;20724;-89
2023/08/25 13:41:15;;;;;;;3.40;3.23;;;;;;;;;;5027447;28;20434;-87
2023/08/25 13:43:41;;;;;;;2.77;2.67;;;;;;;;;;5043776;28;20530;-89
2023/08/25 13:46:08;;;;;;;2.20;2.20;;;;;;;;;;5045366;28;20964;-89
2023/08/25 13:48:34;;;;;;;2.67;2.67;;;;;;;;;;5042517;28;20810;-84
2023/08/25 13:51:00;;;;;;;2.60;2.40;;;;;;;;;;5032346;28;20513;-90
2023/08/25 13:53:28;;;;;;;2.40;2.33;;;;;;;;;;5039663;28;20819;-89
2023/08/25 13:55:54;;;;;;;2.67;2.57;;;;;;;;;;5037964;28;20553;-86
2023/08/25 13:58:20;;;;;;;2.13;2.03;;;;;;;;;;5029932;28;20497;-87
2023/08/25 14:00:46;;;;;;;2.47;2.47;;;;;;;;;;5034193;28;20770;-86
2023/08/25 14:03:12;;;;;;;2.33;2.33;;;;;;;;;;5032278;28;20472;-86
2023/08/25 14:05:39;;;;;;;2.87;2.77;;;;;;;;;;5049464;28;20426;-88
2023/08/25 14:08:06;;;;;;;3.13;3.13;;;;;;;;;;5032223;28;20890;-82
2023/08/25 14:10:32;;;;;;;2.60;2.50;;;;;;;;;;5028505;28;20920;-84
2023/08/25 14:13:01;;;;;;;2.77;2.57;;;;;;;;;;5028766;28;20847;-84
2023/08/25 14:15:26;;;;;;;3.00;2.30;;;;;;;;;;5023981;28;20470;-83
2023/08/25 14:17:52;;;;;;;2.80;2.70;;;;;;;;;;5027962;28;20434;-83
2023/08/25 14:20:18;;;;;;;2.70;2.60;;;;;;;;;;5036548;28;20444;-84
2023/08/25 14:22:44;;;;;;;2.63;2.63;;;;;;;;;;5021490;28;20512;-84
2023/08/25 14:25:11;;;;;;;3.80;2.37;;;;;;;;;;5024773;28;20433;-83
2023/08/25 14:27:37;;;;;;;2.10;2.10;;;;;;;;;;5027739;28;20751;-82
2023/08/25 14:30:04;;;;;;;3.20;3.10;;;;;;;;;;5023531;28;20446;-82
2023/08/25 14:32:30;;;;;;;2.70;2.60;;;;;;;;;;5030189;28;20431;-81
2023/08/25 14:34:57;;;;;;;2.50;2.50;;;;;;;;;;5018531;28;20516;-80
2023/08/25 14:37:23;;;;;;;3.07;2.87;;;;;;;;;;5021312;28;20778;-81